Terminal Aerodrome Forecast
Issued by NWS Midland/Odessa, TX

Home | Current Version | Previous Version | Text Only | Print | Product List | Glossary On
Versions: 1 2 3 4 5 6 7 8 9 10 11 12 13
000
FTUS44 KMAF 301727
TAFMAF
TAF
KMAF 301727Z 3018/0118 21010KT P6SM SKC
     FM010200 11009KT P6SM SKC
     FM010900 06022G32KT P6SM OVC010=

USA.gov is the U.S. government's official web portal to all federal, state and local government web resources and services.